Portada
METAR-TAF:

METAR-TAF

Aeroports :

Rarotonga, Illes Cook

latitud: 21-12S, longitud: 159-49W, altitud: 7 m

Observació

L'informe es va fer fa 52 minuts, a les 18:00 UTC
Vent 13 kt del Est/Nord-Est
Temperatura 24°C
Humitat 65%
Pressió 1016 hPa
Visibilitat 10 km o més
Escasses núvols a una alçada de 2000 ft

METAR: NCRG 231800Z 07013KT 9999 FEW020 24/17 Q1016

Hora: 08:52 (18:52 UTC)

Pronòstic

L'informe es va fer fa 1 hora i 49 minuts, a les 17:03 UTC
Pronòstic vàlid del 23 a les 18 UTC al 24 a les 18 UTC
Vent 10 kt del Est
Visibilitat 10 km o més
Escasses núvols a una alçada de 2000 ft
Temporalment
l' 23 a les 18 UTC al 24 a les 00 UTC
Vent 15 kt del Est amb ràfegues de 25 kt

TAF: NCRG 231703Z 2318/2418 09010KT 9999 FEW020 TEMPO 2318/2400 09015G25KT

Observacions i pronòstics meteorològics de més de 4000 aeroports (METAR i TAF).

Les estacions disponibles són els punts grocs i vermells al mapa.

Posi el ratolí al punt desitjat per veure el nom de l'estació.

Feu clic per veure les observacions i els pronòstics meteorològics.

Per canviar el mapa: feu clic els botons verds amb una creu de color negre per apropar; al botó verd amb un guió per allunyar la imatge; o en les fletxes verdes per a mapes adjacents.


METAR-TAF: